createdAt,value
2022-11-27T00:00:01.250Z,46.4
2022-11-27T00:01:08.988Z,46.4
2022-11-27T00:02:01.230Z,46.6
2022-11-27T00:03:01.357Z,46.4
2022-11-27T00:04:02.004Z,46.4
2022-11-27T00:05:01.965Z,46.2
2022-11-27T00:06:01.218Z,46.2
2022-11-27T00:07:00.927Z,46.2
2022-11-27T00:08:01.407Z,46.4
2022-11-27T00:09:03.666Z,46.4
2022-11-27T00:10:00.915Z,46.4
2022-11-27T00:11:06.091Z,46.6
2022-11-27T00:12:00.929Z,46.6
2022-11-27T00:13:01.215Z,46.6
2022-11-27T00:14:00.932Z,46.8
2022-11-27T00:15:02.506Z,46.6
2022-11-27T00:16:02.180Z,46.4
2022-11-27T00:17:00.931Z,46.6
2022-11-27T00:18:00.948Z,46.4
2022-11-27T00:19:02.247Z,46.6
2022-11-27T00:20:01.244Z,46.4
2022-11-27T00:21:03.512Z,46.6
2022-11-27T00:22:01.688Z,46.6
2022-11-27T00:23:01.575Z,46.4
2022-11-27T00:24:03.237Z,46.4
2022-11-27T00:25:00.942Z,46.2
2022-11-27T00:26:02.765Z,46.2
2022-11-27T00:27:00.925Z,46.4
2022-11-27T00:28:01.225Z,46.6
2022-11-27T00:29:01.867Z,46.6
2022-11-27T00:30:00.914Z,46.6
2022-11-27T00:31:03.686Z,46.6
2022-11-27T00:32:01.877Z,46.4
2022-11-27T00:33:01.405Z,46.4
2022-11-27T00:34:03.734Z,46.4
2022-11-27T00:35:01.234Z,46.4
2022-11-27T00:36:02.996Z,46.2
2022-11-27T00:37:01.355Z,46.2
2022-11-27T00:38:00.921Z,46.4
2022-11-27T00:39:01.783Z,46.2
2022-11-27T00:40:02.176Z,46.4
2022-11-27T00:41:05.441Z,46.2
2022-11-27T00:42:01.223Z,46.2
2022-11-27T00:43:01.227Z,46.0
2022-11-27T00:44:01.260Z,46.0
2022-11-27T00:45:00.936Z,46.0
2022-11-27T00:46:01.156Z,46.0
2022-11-27T00:47:01.302Z,46.4
2022-11-27T00:48:01.168Z,46.2
2022-11-27T00:49:04.126Z,45.9
2022-11-27T00:50:02.423Z,46.0
2022-11-27T00:51:03.170Z,46.0
2022-11-27T00:52:01.380Z,46.0
2022-11-27T00:53:01.018Z,46.0
2022-11-27T00:54:01.281Z,46.0
2022-11-27T00:55:01.312Z,45.7
2022-11-27T00:56:01.377Z,45.7
2022-11-27T00:57:01.229Z,45.7
2022-11-27T00:58:00.952Z,45.5
2022-11-27T00:59:02.588Z,45.5
2022-11-27T01:00:01.237Z,45.5
2022-11-27T01:01:03.290Z,45.7
2022-11-27T01:02:01.426Z,45.7
2022-11-27T01:03:01.476Z,45.7
2022-11-27T01:04:02.865Z,45.7
2022-11-27T01:05:00.926Z,45.5
2022-11-27T01:06:03.006Z,45.5
2022-11-27T01:07:00.932Z,45.5
2022-11-27T01:08:01.204Z,45.5
2022-11-27T01:09:01.752Z,45.5
2022-11-27T01:10:01.355Z,45.5
2022-11-27T01:11:01.809Z,45.1
2022-11-27T01:12:00.943Z,45.3
2022-11-27T01:13:01.234Z,45.1
2022-11-27T01:14:04.404Z,45.1
2022-11-27T01:15:01.212Z,45.3
2022-11-27T01:16:04.274Z,45.1
2022-11-27T01:17:01.294Z,45.1
2022-11-27T01:18:00.917Z,45.1
2022-11-27T01:19:02.181Z,45.0
2022-11-27T01:20:01.334Z,45.0
2022-11-27T01:21:02.545Z,45.0
2022-11-27T01:22:00.935Z,45.3
2022-11-27T01:23:00.915Z,45.1
2022-11-27T01:24:02.712Z,45.0
2022-11-27T01:25:00.945Z,45.0
2022-11-27T01:26:02.119Z,44.8
2022-11-27T01:27:01.218Z,44.8
2022-11-27T01:28:01.067Z,44.8
2022-11-27T01:29:01.253Z,45.0
2022-11-27T01:30:01.484Z,45.0
2022-11-27T01:31:04.844Z,45.0
2022-11-27T01:32:01.042Z,44.6
2022-11-27T01:33:01.787Z,44.4
2022-11-27T01:34:04.729Z,44.6
2022-11-27T01:35:01.237Z,44.6
2022-11-27T01:36:04.259Z,44.4
2022-11-27T01:37:00.930Z,44.6
2022-11-27T01:38:01.295Z,44.6
2022-11-27T01:39:01.636Z,44.4
2022-11-27T01:40:01.218Z,44.2
2022-11-27T01:41:03.387Z,44.2
2022-11-27T01:42:01.213Z,44.2
2022-11-27T01:43:01.265Z,44.4
2022-11-27T01:44:03.086Z,44.4
2022-11-27T01:45:00.926Z,44.6
2022-11-27T01:46:01.500Z,44.8
2022-11-27T01:47:04.465Z,44.8
2022-11-27T01:48:03.713Z,44.8
2022-11-27T01:49:19.715Z,44.8
2022-11-27T01:50:09.787Z,45.0
2022-11-27T01:51:01.252Z,45.1
2022-11-27T01:52:05.054Z,45.0
2022-11-27T01:53:06.568Z,45.0
2022-11-27T01:54:01.335Z,44.8
2022-11-27T01:55:05.382Z,44.8
2022-11-27T01:56:01.190Z,45.0
2022-11-27T01:57:07.140Z,45.0
2022-11-27T01:58:06.397Z,45.0
2022-11-27T01:59:02.992Z,45.0
2022-11-27T02:00:01.615Z,45.1
2022-11-27T02:01:01.402Z,45.0
2022-11-27T02:02:03.126Z,44.8
2022-11-27T02:03:00.992Z,44.8
2022-11-27T02:04:01.595Z,45.0
2022-11-27T02:05:01.706Z,45.1
2022-11-27T02:06:01.218Z,45.1
2022-11-27T02:07:01.507Z,45.1
2022-11-27T02:08:06.358Z,44.8
2022-11-27T02:09:01.831Z,44.4
2022-11-27T02:10:02.025Z,44.6
2022-11-27T02:11:06.426Z,44.8
2022-11-27T02:12:09.844Z,44.8
2022-11-27T02:13:08.703Z,44.4
2022-11-27T02:14:10.020Z,44.6
2022-11-27T02:15:13.283Z,44.8
2022-11-27T02:16:17.786Z,44.8
2022-11-27T02:17:07.707Z,44.6
2022-11-27T02:18:09.558Z,44.8
2022-11-27T02:19:12.619Z,45.0
2022-11-27T02:20:17.741Z,45.0
2022-11-27T02:21:08.601Z,44.6
2022-11-27T02:22:09.183Z,44.8
2022-11-27T02:23:17.519Z,44.6
2022-11-27T02:24:20.405Z,44.4
2022-11-27T02:25:10.065Z,44.6
2022-11-27T02:26:20.403Z,44.4
2022-11-27T02:27:19.107Z,44.6
2022-11-27T02:28:20.874Z,44.4
2022-11-27T02:29:03.584Z,44.4
2022-11-27T02:30:04.649Z,44.4
2022-11-27T02:31:07.936Z,44.6
2022-11-27T02:32:08.356Z,44.8
2022-11-27T02:33:06.769Z,44.8
2022-11-27T02:34:10.044Z,45.0
2022-11-27T02:35:09.124Z,45.1
2022-11-27T02:36:08.163Z,45.1
2022-11-27T02:37:11.281Z,45.1
2022-11-27T02:38:08.690Z,45.0
2022-11-27T02:39:06.947Z,45.0
2022-11-27T02:40:05.779Z,44.8
2022-11-27T02:41:08.762Z,44.8
2022-11-27T02:42:09.379Z,45.0
2022-11-27T02:43:06.496Z,44.8
2022-11-27T02:44:04.810Z,44.6
2022-11-27T02:45:03.921Z,44.6
2022-11-27T02:46:04.331Z,44.4
2022-11-27T02:47:04.071Z,44.2
2022-11-27T02:48:03.799Z,44.2
2022-11-27T02:49:05.980Z,44.2
2022-11-27T02:50:03.896Z,44.4
2022-11-27T02:51:03.068Z,44.4
2022-11-27T02:52:02.733Z,44.6
2022-11-27T02:53:06.139Z,44.2
2022-11-27T02:54:05.152Z,44.2
2022-11-27T02:55:06.332Z,44.2
2022-11-27T02:56:04.300Z,44.2
2022-11-27T02:57:04.821Z,44.1
2022-11-27T02:58:05.084Z,44.1
2022-11-27T02:59:05.580Z,44.1
2022-11-27T03:00:01.642Z,44.1
2022-11-27T03:01:05.024Z,44.2
2022-11-27T03:02:06.798Z,44.2
2022-11-27T03:03:07.694Z,44.2
2022-11-27T03:04:05.404Z,44.4
2022-11-27T03:05:04.604Z,44.2
2022-11-27T03:06:08.310Z,44.4
2022-11-27T03:07:06.239Z,44.6
2022-11-27T03:08:05.721Z,44.8
2022-11-27T03:09:06.480Z,44.8
2022-11-27T03:10:09.166Z,44.8
2022-11-27T03:11:04.543Z,44.8
2022-11-27T03:12:05.014Z,44.8
2022-11-27T03:13:02.603Z,44.8
2022-11-27T03:14:05.855Z,44.8
2022-11-27T03:15:01.566Z,44.4
2022-11-27T03:16:09.506Z,44.8
2022-11-27T03:17:10.303Z,44.8
2022-11-27T03:18:09.243Z,44.6
2022-11-27T03:19:09.327Z,44.6
2022-11-27T03:20:09.888Z,44.4
2022-11-27T03:21:08.577Z,44.4
2022-11-27T03:22:03.199Z,44.4
2022-11-27T03:23:01.892Z,44.6
2022-11-27T03:24:00.996Z,44.4
2022-11-27T03:25:01.717Z,44.4
2022-11-27T03:26:01.302Z,44.4
2022-11-27T03:27:02.574Z,44.4
2022-11-27T03:28:04.651Z,44.4
2022-11-27T03:29:04.916Z,44.2
2022-11-27T03:30:04.318Z,44.2
2022-11-27T03:31:01.760Z,44.6
2022-11-27T03:32:01.585Z,44.8
2022-11-27T03:33:02.028Z,44.8
2022-11-27T03:34:01.722Z,44.6
2022-11-27T03:35:01.382Z,44.8
2022-11-27T03:36:01.246Z,44.8
2022-11-27T03:37:02.858Z,44.6
2022-11-27T03:38:01.320Z,44.6
2022-11-27T03:39:02.579Z,44.6
2022-11-27T03:40:02.214Z,44.6
2022-11-27T03:41:08.500Z,44.6
2022-11-27T03:42:10.874Z,44.6
2022-11-27T03:43:07.751Z,44.4
2022-11-27T03:44:08.347Z,44.4
2022-11-27T03:45:10.648Z,44.4
2022-11-27T03:46:08.190Z,44.4
2022-11-27T03:47:09.787Z,44.6
2022-11-27T03:48:12.844Z,44.6
2022-11-27T03:49:07.984Z,44.4
2022-11-27T03:50:18.128Z,44.4
2022-11-27T03:51:09.739Z,44.2
2022-11-27T03:52:11.208Z,44.2
2022-11-27T03:53:12.217Z,44.2
2022-11-27T03:54:08.826Z,44.2
2022-11-27T03:55:09.409Z,44.2
2022-11-27T03:56:11.085Z,44.2
2022-11-27T03:57:08.506Z,44.1
2022-11-27T03:58:05.399Z,44.1
2022-11-27T03:59:07.931Z,43.9
2022-11-27T04:00:05.389Z,44.1
2022-11-27T04:01:03.768Z,44.1
2022-11-27T04:02:01.008Z,43.9
2022-11-27T04:03:03.077Z,43.9
2022-11-27T04:04:01.358Z,43.7
2022-11-27T04:05:00.928Z,44.1
2022-11-27T04:06:01.651Z,44.2
2022-11-27T04:07:00.981Z,44.6
2022-11-27T04:08:02.563Z,44.2
2022-11-27T04:09:01.277Z,44.1
2022-11-27T04:10:02.423Z,43.9
2022-11-27T04:11:01.252Z,43.5
2022-11-27T04:12:01.352Z,43.5
2022-11-27T04:13:01.395Z,43.5
2022-11-27T04:14:01.780Z,43.7
2022-11-27T04:15:01.261Z,43.9
2022-11-27T04:16:01.489Z,43.7
2022-11-27T04:17:01.141Z,43.9
2022-11-27T04:18:01.262Z,43.7
2022-11-27T04:19:01.544Z,43.9
2022-11-27T04:20:00.935Z,43.7
2022-11-27T04:21:01.231Z,43.7
2022-11-27T04:22:01.220Z,43.7
2022-11-27T04:23:01.241Z,43.5
2022-11-27T04:24:02.861Z,43.5
2022-11-27T04:25:01.305Z,43.5
2022-11-27T04:26:00.933Z,43.7
2022-11-27T04:27:01.406Z,43.7
2022-11-27T04:28:01.085Z,43.9
2022-11-27T04:29:00.918Z,43.5
2022-11-27T04:30:01.974Z,43.5
2022-11-27T04:31:01.298Z,43.9
2022-11-27T04:32:00.949Z,43.7
2022-11-27T04:33:01.466Z,43.7
2022-11-27T04:34:00.920Z,43.7
2022-11-27T04:35:00.929Z,43.7
2022-11-27T04:36:01.398Z,43.5
2022-11-27T04:37:01.260Z,43.3
2022-11-27T04:38:01.230Z,43.3
2022-11-27T04:39:01.354Z,43.2
2022-11-27T04:40:01.658Z,43.2
2022-11-27T04:41:01.212Z,43.2
2022-11-27T04:42:01.405Z,43.3
2022-11-27T04:43:01.226Z,43.5
2022-11-27T04:44:00.934Z,43.3
2022-11-27T04:45:00.915Z,43.5
2022-11-27T04:46:01.226Z,43.5
2022-11-27T04:47:01.018Z,43.5
2022-11-27T04:48:00.929Z,43.5
2022-11-27T04:49:00.932Z,43.3
2022-11-27T04:50:01.711Z,43.3
2022-11-27T04:51:01.260Z,43.5
2022-11-27T04:52:01.253Z,43.5
2022-11-27T04:53:01.308Z,43.3
2022-11-27T04:54:01.565Z,43.2
2022-11-27T04:55:01.335Z,43.2
2022-11-27T04:56:01.247Z,43.2
2022-11-27T04:57:00.927Z,43.2
2022-11-27T04:58:01.226Z,43.0
2022-11-27T04:59:01.227Z,43.0
2022-11-27T05:00:01.979Z,43.2
2022-11-27T05:01:01.352Z,43.2
2022-11-27T05:02:00.933Z,43.2
2022-11-27T05:03:01.328Z,43.5
2022-11-27T05:04:01.585Z,43.2
2022-11-27T05:05:01.275Z,43.0
2022-11-27T05:06:01.293Z,42.8
2022-11-27T05:07:01.232Z,43.2
2022-11-27T05:08:01.289Z,43.0
2022-11-27T05:09:00.949Z,43.0
2022-11-27T05:10:00.960Z,43.0
2022-11-27T05:11:03.126Z,42.8
2022-11-27T05:12:01.204Z,42.8
2022-11-27T05:13:00.955Z,42.6
2022-11-27T05:14:01.272Z,42.6
2022-11-27T05:15:04.484Z,42.6
2022-11-27T05:16:01.845Z,42.4
2022-11-27T05:17:01.621Z,42.3
2022-11-27T05:18:01.218Z,42.1
2022-11-27T05:19:00.927Z,41.9
2022-11-27T05:20:01.261Z,42.3
2022-11-27T05:21:05.600Z,42.1
2022-11-27T05:22:01.945Z,42.1
2022-11-27T05:23:01.293Z,42.1
2022-11-27T05:24:01.372Z,42.1
2022-11-27T05:25:01.508Z,41.7
2022-11-27T05:26:01.381Z,41.7
2022-11-27T05:27:00.936Z,41.7
2022-11-27T05:28:01.221Z,41.7
2022-11-27T05:29:01.471Z,41.7
2022-11-27T05:30:00.915Z,41.7
2022-11-27T05:31:00.994Z,41.5
2022-11-27T05:32:01.368Z,41.7
2022-11-27T05:33:00.926Z,41.9
2022-11-27T05:34:02.163Z,41.7
2022-11-27T05:35:00.981Z,41.5
2022-11-27T05:36:01.074Z,41.9
2022-11-27T05:37:01.240Z,41.5
2022-11-27T05:38:00.931Z,41.4
2022-11-27T05:39:02.885Z,41.5
2022-11-27T05:40:01.220Z,41.4
2022-11-27T05:41:01.232Z,41.0
2022-11-27T05:42:01.214Z,41.2
2022-11-27T05:43:01.212Z,41.7
2022-11-27T05:44:01.548Z,41.7
2022-11-27T05:45:01.459Z,41.4
2022-11-27T05:46:04.851Z,40.8
2022-11-27T05:47:01.268Z,40.8
2022-11-27T05:48:01.227Z,40.6
2022-11-27T05:49:01.224Z,40.6
2022-11-27T05:50:01.215Z,40.6
2022-11-27T05:51:01.450Z,41.0
2022-11-27T05:52:00.955Z,41.0
2022-11-27T05:53:00.933Z,41.0
2022-11-27T05:54:00.941Z,41.0
2022-11-27T05:55:00.926Z,41.2
2022-11-27T05:56:03.040Z,41.0
2022-11-27T05:57:01.222Z,40.8
2022-11-27T05:58:00.980Z,40.8
2022-11-27T05:59:01.319Z,40.6
2022-11-27T06:00:01.460Z,40.6
2022-11-27T06:01:01.492Z,40.5
2022-11-27T06:02:01.304Z,40.1
2022-11-27T06:03:01.307Z,39.9
2022-11-27T06:04:01.360Z,39.7
2022-11-27T06:05:00.957Z,39.6
2022-11-27T06:06:05.509Z,39.4
2022-11-27T06:07:01.501Z,39.4
2022-11-27T06:08:00.951Z,39.4
2022-11-27T06:09:00.950Z,39.9
2022-11-27T06:10:00.982Z,40.3
2022-11-27T06:11:05.725Z,40.5
2022-11-27T06:12:00.931Z,40.8
2022-11-27T06:13:01.227Z,41.0
2022-11-27T06:14:01.265Z,41.2
2022-11-27T06:15:01.261Z,41.5
2022-11-27T06:16:05.248Z,41.5
2022-11-27T06:17:02.061Z,41.7
2022-11-27T06:18:01.437Z,41.9
2022-11-27T06:19:00.944Z,42.1
2022-11-27T06:20:01.260Z,41.9
2022-11-27T06:21:05.059Z,41.7
2022-11-27T06:22:00.967Z,41.7
2022-11-27T06:23:00.961Z,41.9
2022-11-27T06:24:00.951Z,42.3
2022-11-27T06:25:00.932Z,42.3
2022-11-27T06:26:11.536Z,42.3
2022-11-27T06:27:00.936Z,42.3
2022-11-27T06:28:01.250Z,42.3
2022-11-27T06:29:01.700Z,42.4
2022-11-27T06:30:03.358Z,42.4
2022-11-27T06:31:05.753Z,42.3
2022-11-27T06:32:00.971Z,42.3
2022-11-27T06:33:01.039Z,42.3
2022-11-27T06:34:02.483Z,42.3
2022-11-27T06:35:01.236Z,42.4
2022-11-27T06:36:02.957Z,42.1
2022-11-27T06:37:01.237Z,42.4
2022-11-27T06:38:00.936Z,42.4
2022-11-27T06:39:02.948Z,42.4
2022-11-27T06:40:01.576Z,42.4
2022-11-27T06:41:03.094Z,42.4
2022-11-27T06:42:00.911Z,42.6
2022-11-27T06:43:00.939Z,42.6
2022-11-27T06:44:02.173Z,42.4
2022-11-27T06:45:01.235Z,42.6
2022-11-27T06:46:04.705Z,42.4
2022-11-27T06:47:00.926Z,42.3
2022-11-27T06:48:01.264Z,42.3
2022-11-27T06:49:01.504Z,42.4
2022-11-27T06:50:00.926Z,42.4
2022-11-27T06:51:01.973Z,42.4
2022-11-27T06:52:01.512Z,42.6
2022-11-27T06:53:00.931Z,42.4
2022-11-27T06:54:01.989Z,42.4
2022-11-27T06:55:00.920Z,42.4
2022-11-27T06:56:02.743Z,42.6
2022-11-27T06:57:00.925Z,42.6
2022-11-27T06:58:01.229Z,42.6
2022-11-27T06:59:01.519Z,42.6
2022-11-27T07:00:01.212Z,42.8
2022-11-27T07:01:03.788Z,43.2
2022-11-27T07:02:01.645Z,43.2
2022-11-27T07:03:01.214Z,43.2
2022-11-27T07:04:01.293Z,43.2
2022-11-27T07:05:00.909Z,43.2
2022-11-27T07:06:02.922Z,43.0
2022-11-27T07:07:01.012Z,43.0
2022-11-27T07:08:01.005Z,43.0
2022-11-27T07:09:01.366Z,43.0
2022-11-27T07:10:00.941Z,43.2
2022-11-27T07:11:01.974Z,43.3
2022-11-27T07:12:01.306Z,43.5
2022-11-27T07:13:01.440Z,43.5
2022-11-27T07:14:02.946Z,43.5
2022-11-27T07:15:04.211Z,43.2
2022-11-27T07:16:03.160Z,43.2
2022-11-27T07:17:00.935Z,43.0
2022-11-27T07:18:01.132Z,43.3
2022-11-27T07:19:03.415Z,43.2
2022-11-27T07:20:01.375Z,43.2
2022-11-27T07:21:01.238Z,43.2
2022-11-27T07:22:01.216Z,43.0
2022-11-27T07:23:01.212Z,43.2
2022-11-27T07:24:01.421Z,43.2
2022-11-27T07:25:00.937Z,43.2
2022-11-27T07:26:05.648Z,43.0
2022-11-27T07:27:01.250Z,43.0
2022-11-27T07:28:00.935Z,43.0
2022-11-27T07:29:00.940Z,43.0
2022-11-27T07:30:01.354Z,42.8
2022-11-27T07:31:02.048Z,42.6
2022-11-27T07:32:01.271Z,42.8
2022-11-27T07:33:01.568Z,42.8
2022-11-27T07:34:01.248Z,42.8
2022-11-27T07:35:01.132Z,42.8
2022-11-27T07:36:03.434Z,42.6
2022-11-27T07:37:00.918Z,42.6
2022-11-27T07:38:00.920Z,42.4
2022-11-27T07:39:00.926Z,42.6
2022-11-27T07:40:02.849Z,42.3
2022-11-27T07:41:01.562Z,42.3
2022-11-27T07:42:23.240Z,42.1
2022-11-27T07:43:00.946Z,42.1
2022-11-27T07:44:01.671Z,41.9
2022-11-27T07:45:01.281Z,41.7
2022-11-27T07:46:04.179Z,41.4
2022-11-27T07:47:01.214Z,41.4
2022-11-27T07:48:00.946Z,41.2
2022-11-27T07:49:00.993Z,41.2
2022-11-27T07:50:01.284Z,41.0
2022-11-27T07:51:00.980Z,41.0
2022-11-27T07:52:00.923Z,40.8
2022-11-27T07:53:01.281Z,40.6
2022-11-27T07:54:00.959Z,40.6
2022-11-27T07:55:01.303Z,40.5
2022-11-27T07:56:01.241Z,40.5
2022-11-27T07:57:01.686Z,40.3
2022-11-27T07:58:00.922Z,40.1
2022-11-27T07:59:01.251Z,40.1
2022-11-27T08:00:01.263Z,39.7
2022-11-27T08:01:04.934Z,39.7
2022-11-27T08:02:01.218Z,39.6
2022-11-27T08:03:01.926Z,39.4
2022-11-27T08:04:01.301Z,39.2
2022-11-27T08:05:01.222Z,39.0
2022-11-27T08:06:01.292Z,39.0
2022-11-27T08:07:00.949Z,38.8
2022-11-27T08:08:01.535Z,38.7
2022-11-27T08:09:00.923Z,38.5
2022-11-27T08:10:01.335Z,38.5
2022-11-27T08:11:01.568Z,38.5
2022-11-27T08:12:01.611Z,38.3
2022-11-27T08:13:01.148Z,38.3
2022-11-27T08:14:03.368Z,38.1
2022-11-27T08:15:00.929Z,38.1
2022-11-27T08:16:00.974Z,38.1
2022-11-27T08:17:01.243Z,38.1
2022-11-27T08:18:00.918Z,38.1
2022-11-27T08:19:01.575Z,38.1
2022-11-27T08:20:01.667Z,38.1
2022-11-27T08:21:01.210Z,37.9
2022-11-27T08:22:01.048Z,37.9
2022-11-27T08:23:02.931Z,37.9
2022-11-27T08:24:01.241Z,37.8
2022-11-27T08:25:01.292Z,37.8
2022-11-27T08:26:03.936Z,37.8
2022-11-27T08:27:00.912Z,37.8
2022-11-27T08:28:01.674Z,37.6
2022-11-27T08:29:01.211Z,37.8
2022-11-27T08:30:01.686Z,37.8
2022-11-27T08:31:03.074Z,37.6
2022-11-27T08:32:01.315Z,37.8
2022-11-27T08:33:01.748Z,37.8
2022-11-27T08:34:01.261Z,37.9
2022-11-27T08:35:00.911Z,38.5
2022-11-27T08:36:02.090Z,38.7
2022-11-27T08:37:01.770Z,38.8
2022-11-27T08:38:01.758Z,38.8
2022-11-27T08:39:01.249Z,38.5
2022-11-27T08:40:01.684Z,38.7
2022-11-27T08:41:03.999Z,38.5
2022-11-27T08:42:02.322Z,38.3
2022-11-27T08:43:00.932Z,38.1
2022-11-27T08:44:03.539Z,37.9
2022-11-27T08:45:01.226Z,37.9
2022-11-27T08:46:03.361Z,37.8
2022-11-27T08:47:01.698Z,37.8
2022-11-27T08:48:00.926Z,37.8
2022-11-27T08:49:01.220Z,37.9
2022-11-27T08:50:01.266Z,37.9
2022-11-27T08:51:05.496Z,37.9
2022-11-27T08:52:01.039Z,38.1
2022-11-27T08:53:00.930Z,37.9
2022-11-27T08:54:01.564Z,37.8
2022-11-27T08:55:00.927Z,37.6
2022-11-27T08:56:05.760Z,37.4
2022-11-27T08:57:01.396Z,37.2
2022-11-27T08:58:01.245Z,37.0
2022-11-27T08:59:01.017Z,37.0
2022-11-27T09:00:00.974Z,36.7
2022-11-27T09:01:07.620Z,36.7
2022-11-27T09:02:01.245Z,36.5
2022-11-27T09:03:01.936Z,36.5
2022-11-27T09:04:01.335Z,36.5
2022-11-27T09:05:00.948Z,36.5
2022-11-27T09:06:00.940Z,36.5
2022-11-27T09:07:01.213Z,36.3
2022-11-27T09:08:01.411Z,36.5
2022-11-27T09:09:04.817Z,36.3
2022-11-27T09:10:00.982Z,36.1
2022-11-27T09:11:01.269Z,36.3
2022-11-27T09:12:01.703Z,36.5
2022-11-27T09:13:00.920Z,36.7
2022-11-27T09:14:03.279Z,37.0
2022-11-27T09:15:01.215Z,37.4
2022-11-27T09:16:01.685Z,37.0
2022-11-27T09:17:01.085Z,37.2
2022-11-27T09:18:01.198Z,37.4
2022-11-27T09:19:01.780Z,37.2
2022-11-27T09:20:01.193Z,37.4
2022-11-27T09:21:03.789Z,36.9
2022-11-27T09:22:01.236Z,36.9
2022-11-27T09:23:00.928Z,37.0
2022-11-27T09:24:01.578Z,36.9
2022-11-27T09:25:01.789Z,36.5
2022-11-27T09:26:03.686Z,36.3
2022-11-27T09:27:01.243Z,36.3
2022-11-27T09:28:00.932Z,36.1
2022-11-27T09:29:01.236Z,36.0
2022-11-27T09:30:00.906Z,36.0
2022-11-27T09:31:03.701Z,36.1
2022-11-27T09:32:01.071Z,36.1
2022-11-27T09:33:00.914Z,36.1
2022-11-27T09:34:01.396Z,36.3
2022-11-27T09:35:01.499Z,36.5
2022-11-27T09:36:04.780Z,36.5
2022-11-27T09:37:00.916Z,36.3
2022-11-27T09:38:00.923Z,36.3
2022-11-27T09:39:01.175Z,36.3
2022-11-27T09:40:01.216Z,36.3
2022-11-27T09:41:14.908Z,36.3
2022-11-27T09:42:04.135Z,36.1
2022-11-27T09:43:04.559Z,36.1
2022-11-27T09:44:10.039Z,36.0
2022-11-27T09:45:04.949Z,36.0
2022-11-27T09:46:04.482Z,36.0
2022-11-27T09:47:11.704Z,35.8
2022-11-27T09:48:06.595Z,35.8
2022-11-27T09:49:06.937Z,35.8
2022-11-27T09:50:05.324Z,36.0
2022-11-27T09:51:05.646Z,35.8
2022-11-27T09:52:04.200Z,35.6
2022-11-27T09:53:07.921Z,35.8
2022-11-27T09:54:07.211Z,35.6
2022-11-27T09:55:09.225Z,35.6
2022-11-27T09:56:06.185Z,36.0
2022-11-27T09:57:03.066Z,35.6
2022-11-27T09:58:05.009Z,35.6
2022-11-27T09:59:03.253Z,35.6
2022-11-27T10:00:10.775Z,35.6
2022-11-27T10:01:08.664Z,35.8
2022-11-27T10:02:01.821Z,36.0
2022-11-27T10:03:01.417Z,35.8
2022-11-27T10:04:02.040Z,35.8
2022-11-27T10:05:15.289Z,36.0
2022-11-27T10:06:14.474Z,36.0
2022-11-27T10:07:14.094Z,36.0
2022-11-27T10:08:11.961Z,36.0
2022-11-27T10:09:14.732Z,36.0
2022-11-27T10:10:15.307Z,36.1
2022-11-27T10:11:10.499Z,36.3
2022-11-27T10:12:11.736Z,36.3
2022-11-27T10:13:13.270Z,36.5
2022-11-27T10:14:17.671Z,36.5
2022-11-27T10:15:08.953Z,36.7
2022-11-27T10:16:08.950Z,36.7
2022-11-27T10:17:09.365Z,36.7
2022-11-27T10:18:09.904Z,36.9
2022-11-27T10:19:10.684Z,36.9
2022-11-27T10:20:11.870Z,36.9
2022-11-27T10:21:09.238Z,37.0
2022-11-27T10:22:14.297Z,37.2
2022-11-27T10:23:09.538Z,37.2
2022-11-27T10:24:09.889Z,37.0
2022-11-27T10:25:14.622Z,37.0
2022-11-27T10:26:09.344Z,36.9
2022-11-27T10:27:02.738Z,36.9
2022-11-27T10:28:11.664Z,37.2
2022-11-27T10:29:11.849Z,37.4
2022-11-27T10:30:03.877Z,37.4
2022-11-27T10:31:08.947Z,37.6
2022-11-27T10:32:05.438Z,37.6
2022-11-27T10:33:03.309Z,37.6
2022-11-27T10:34:04.495Z,37.4
2022-11-27T10:35:04.465Z,37.4
2022-11-27T10:36:02.166Z,37.4
2022-11-27T10:37:07.350Z,37.2
2022-11-27T10:38:09.041Z,37.0
2022-11-27T10:39:03.580Z,36.9
2022-11-27T10:40:05.548Z,36.7
2022-11-27T10:41:07.803Z,36.7
2022-11-27T10:42:08.517Z,36.9
2022-11-27T10:43:09.210Z,36.5
2022-11-27T10:44:15.373Z,36.5
2022-11-27T10:45:04.261Z,36.3
2022-11-27T10:46:04.698Z,36.3
2022-11-27T10:47:03.559Z,36.3
2022-11-27T10:48:00.929Z,36.1
2022-11-27T10:49:01.247Z,36.3
2022-11-27T10:50:02.002Z,36.3
2022-11-27T10:51:01.262Z,36.3
2022-11-27T10:52:01.255Z,36.5
2022-11-27T10:53:05.237Z,36.7
2022-11-27T10:54:05.477Z,37.2
2022-11-27T10:55:03.739Z,37.2
2022-11-27T10:56:20.400Z,37.2
2022-11-27T10:57:20.406Z,37.8
2022-11-27T10:58:08.028Z,37.8
2022-11-27T10:59:05.833Z,37.6
2022-11-27T11:00:08.396Z,37.4
2022-11-27T11:01:02.061Z,37.0
2022-11-27T11:02:01.647Z,36.9
2022-11-27T11:03:02.936Z,36.9
2022-11-27T11:04:24.334Z,36.5
2022-11-27T11:05:34.626Z,36.5
2022-11-27T11:06:20.184Z,36.1
2022-11-27T11:07:01.456Z,36.1
2022-11-27T11:08:04.205Z,36.1
2022-11-27T11:09:04.361Z,36.1
2022-11-27T11:10:01.594Z,36.0
2022-11-27T11:11:03.388Z,36.0
2022-11-27T11:12:07.892Z,36.0
2022-11-27T11:13:12.715Z,36.0
2022-11-27T11:14:00.964Z,36.0
2022-11-27T11:15:01.255Z,36.0
2022-11-27T11:16:04.810Z,36.1
2022-11-27T11:17:00.964Z,36.3
2022-11-27T11:18:01.429Z,36.5
2022-11-27T11:19:01.008Z,36.5
2022-11-27T11:20:13.776Z,36.5
2022-11-27T11:21:03.129Z,36.7
2022-11-27T11:22:13.308Z,36.7
2022-11-27T11:23:01.247Z,36.9
2022-11-27T11:24:03.491Z,36.7
2022-11-27T11:25:01.269Z,36.7
2022-11-27T11:26:06.216Z,36.7
2022-11-27T11:27:11.437Z,36.5
2022-11-27T11:28:01.266Z,36.5
2022-11-27T11:29:04.191Z,36.3
2022-11-27T11:30:05.375Z,36.3
2022-11-27T11:31:05.435Z,36.1
2022-11-27T11:32:08.211Z,36.0
2022-11-27T11:33:03.315Z,36.1
2022-11-27T11:34:05.016Z,36.1
2022-11-27T11:35:06.766Z,36.3
2022-11-27T11:36:09.703Z,36.3
2022-11-27T11:37:04.418Z,36.5
2022-11-27T11:38:03.872Z,36.5
2022-11-27T11:39:01.696Z,37.0
2022-11-27T11:40:05.599Z,37.0
2022-11-27T11:41:04.470Z,37.0
2022-11-27T11:42:08.100Z,37.0
2022-11-27T11:43:04.000Z,37.2
2022-11-27T11:44:02.026Z,37.0
2022-11-27T11:45:04.615Z,37.2
2022-11-27T11:46:15.057Z,37.2
2022-11-27T11:47:00.959Z,37.2
2022-11-27T11:48:11.980Z,37.2
2022-11-27T11:49:06.500Z,37.2
2022-11-27T11:50:01.046Z,37.2
2022-11-27T11:51:03.892Z,37.0
2022-11-27T11:52:13.955Z,37.0
2022-11-27T11:53:10.043Z,37.2
2022-11-27T11:54:12.080Z,37.2
2022-11-27T11:55:11.348Z,37.0
2022-11-27T11:56:08.871Z,37.0
2022-11-27T11:57:05.428Z,37.0
2022-11-27T11:58:16.304Z,37.2
2022-11-27T11:59:07.642Z,37.0
2022-11-27T12:00:05.128Z,37.0
2022-11-27T12:01:26.983Z,37.2
2022-11-27T12:02:20.497Z,37.2
2022-11-27T12:03:17.646Z,37.4
2022-11-27T12:04:20.392Z,37.4
2022-11-27T12:05:12.480Z,37.4
2022-11-27T12:06:16.025Z,37.4
2022-11-27T12:07:09.790Z,37.4
2022-11-27T12:08:17.925Z,37.4
2022-11-27T12:09:14.456Z,37.2
2022-11-27T12:10:12.123Z,37.4
2022-11-27T12:11:11.693Z,37.2
2022-11-27T12:12:12.754Z,37.4
2022-11-27T12:13:12.492Z,37.6
2022-11-27T12:14:12.726Z,37.6
2022-11-27T12:15:10.498Z,37.6
2022-11-27T12:16:05.817Z,37.4
2022-11-27T12:17:10.592Z,37.4
2022-11-27T12:18:12.160Z,37.4
2022-11-27T12:19:17.368Z,37.4
2022-11-27T12:20:10.525Z,37.4
2022-11-27T12:21:13.068Z,37.4
2022-11-27T12:22:13.606Z,37.4
2022-11-27T12:23:20.418Z,37.4
2022-11-27T12:24:19.880Z,37.6
2022-11-27T12:25:09.444Z,37.6
2022-11-27T12:26:12.896Z,37.6
2022-11-27T12:27:14.835Z,37.8
2022-11-27T12:28:12.220Z,38.1
2022-11-27T12:29:19.478Z,37.9
2022-11-27T12:30:08.752Z,37.9
2022-11-27T12:31:10.989Z,37.8
2022-11-27T12:32:18.504Z,37.8
2022-11-27T12:33:16.195Z,37.9
2022-11-27T12:34:05.165Z,37.8
2022-11-27T12:35:15.916Z,37.8
2022-11-27T12:36:15.055Z,37.8
2022-11-27T12:37:20.410Z,37.8
2022-11-27T12:38:20.750Z,37.8
2022-11-27T12:39:10.005Z,37.8
2022-11-27T12:40:15.919Z,37.8
2022-11-27T12:41:18.825Z,37.9
2022-11-27T12:42:16.692Z,37.9
2022-11-27T12:43:16.002Z,37.9
2022-11-27T12:44:01.650Z,37.9
2022-11-27T12:45:05.564Z,37.8
2022-11-27T12:46:05.671Z,37.8
2022-11-27T12:47:08.319Z,37.9
2022-11-27T12:48:11.734Z,38.1
2022-11-27T12:49:09.694Z,38.3
2022-11-27T12:50:07.189Z,38.5
2022-11-27T12:51:07.616Z,38.5
2022-11-27T12:52:08.950Z,38.5
2022-11-27T12:53:09.253Z,38.8
2022-11-27T12:54:05.275Z,38.8
2022-11-27T12:55:05.944Z,39.0
2022-11-27T12:56:12.199Z,39.2
2022-11-27T12:57:07.554Z,39.4
2022-11-27T12:58:06.888Z,39.6
2022-11-27T12:59:11.427Z,39.7
2022-11-27T13:00:05.450Z,39.9
2022-11-27T13:01:06.046Z,40.1
2022-11-27T13:02:11.706Z,40.1
2022-11-27T13:03:10.194Z,40.3
2022-11-27T13:04:11.550Z,40.3
2022-11-27T13:05:04.392Z,40.6
2022-11-27T13:06:07.942Z,40.6
2022-11-27T13:07:06.959Z,40.6
2022-11-27T13:08:06.612Z,40.8
2022-11-27T13:09:04.919Z,40.8
2022-11-27T13:10:08.746Z,40.8
2022-11-27T13:11:04.601Z,41.0
2022-11-27T13:12:02.189Z,40.8
2022-11-27T13:13:06.875Z,41.0
2022-11-27T13:14:06.607Z,41.0
2022-11-27T13:15:07.475Z,41.0
2022-11-27T13:16:06.543Z,41.2
2022-11-27T13:17:05.225Z,41.2
2022-11-27T13:18:10.319Z,41.4